sensor_id;sensor_type;location;lat;lon;timestamp;temperature;humidity
16060;DHT22;8134;49.552;7.632;2023-03-20T07:52:08;11.10;99.90
16060;DHT22;8134;49.552;7.632;2023-03-20T07:54:34;11.10;99.90
16060;DHT22;8134;49.552;7.632;2023-03-20T07:57:00;11.00;99.90
16060;DHT22;8134;49.552;7.632;2023-03-20T07:59:25;11.00;99.90
16060;DHT22;8134;49.552;7.632;2023-03-20T08:01:51;11.00;99.90
16060;DHT22;8134;49.552;7.632;2023-03-20T08:04:16;11.00;99.90
16060;DHT22;8134;49.552;7.632;2023-03-20T08:06:44;10.90;99.90
16060;DHT22;8134;49.552;7.632;2023-03-20T08:09:09;11.00;99.90
16060;DHT22;8134;49.552;7.632;2023-03-20T08:11:34;11.00;99.90
16060;DHT22;8134;49.552;7.632;2023-03-20T08:14:00;11.00;99.90
16060;DHT22;8134;49.552;7.632;2023-03-20T08:16:25;11.10;99.90
16060;DHT22;8134;49.552;7.632;2023-03-20T08:18:51;11.20;99.90
16060;DHT22;8134;49.552;7.632;2023-03-20T08:21:17;11.30;99.90
16060;DHT22;8134;49.552;7.632;2023-03-20T08:23:43;11.40;99.90
16060;DHT22;8134;49.552;7.632;2023-03-20T08:26:08;11.40;99.90
16060;DHT22;8134;49.552;7.632;2023-03-20T08:28:34;11.50;99.90
16060;DHT22;8134;49.552;7.632;2023-03-20T08:30:59;11.30;99.90
16060;DHT22;8134;49.552;7.632;2023-03-20T08:33:25;11.40;99.90
16060;DHT22;8134;49.552;7.632;2023-03-20T08:35:55;11.20;99.90
16060;DHT22;8134;49.552;7.632;2023-03-20T08:38:21;11.20;99.90
16060;DHT22;8134;49.552;7.632;2023-03-20T08:40:46;11.40;99.90
16060;DHT22;8134;49.552;7.632;2023-03-20T08:43:11;11.40;99.90
16060;DHT22;8134;49.552;7.632;2023-03-20T08:45:37;11.40;99.90
16060;DHT22;8134;49.552;7.632;2023-03-20T08:48:03;11.50;99.90
16060;DHT22;8134;49.552;7.632;2023-03-20T08:50:29;11.50;99.90
16060;DHT22;8134;49.552;7.632;2023-03-20T08:52:54;11.70;99.90
16060;DHT22;8134;49.552;7.632;2023-03-20T08:55:20;11.70;99.90
16060;DHT22;8134;49.552;7.632;2023-03-20T08:57:45;11.80;99.90
16060;DHT22;8134;49.552;7.632;2023-03-20T09:00:12;11.70;99.90
16060;DHT22;8134;49.552;7.632;2023-03-20T09:02:39;11.60;99.90
16060;DHT22;8134;49.552;7.632;2023-03-20T09:05:05;11.70;99.90
16060;DHT22;8134;49.552;7.632;2023-03-20T09:07:31;11.80;99.90
16060;DHT22;8134;49.552;7.632;2023-03-20T09:09:57;11.90;99.90
16060;DHT22;8134;49.552;7.632;2023-03-20T09:12:22;12.00;99.90
16060;DHT22;8134;49.552;7.632;2023-03-20T09:14:48;12.00;99.90
16060;DHT22;8134;49.552;7.632;2023-03-20T09:17:13;12.10;99.90
16060;DHT22;8134;49.552;7.632;2023-03-20T09:19:39;12.00;99.90
16060;DHT22;8134;49.552;7.632;2023-03-20T09:22:08;12.10;99.90
16060;DHT22;8134;49.552;7.632;2023-03-20T09:24:34;12.00;99.90
16060;DHT22;8134;49.552;7.632;2023-03-20T09:26:59;11.90;99.90
16060;DHT22;8134;49.552;7.632;2023-03-20T09:29:25;11.90;99.90
16060;DHT22;8134;49.552;7.632;2023-03-20T09:31:54;11.90;99.90
16060;DHT22;8134;49.552;7.632;2023-03-20T09:34:19;11.90;99.90
16060;DHT22;8134;49.552;7.632;2023-03-20T09:36:45;12.10;99.90
16060;DHT22;8134;49.552;7.632;2023-03-20T09:39:10;12.10;99.90
16060;DHT22;8134;49.552;7.632;2023-03-20T09:41:36;12.30;99.90
16060;DHT22;8134;49.552;7.632;2023-03-20T09:51:58;12.90;99.90
16060;DHT22;8134;49.552;7.632;2023-03-20T09:56:49;13.00;99.90
16060;DHT22;8134;49.552;7.632;2023-03-20T09:59:15;12.90;99.90
16060;DHT22;8134;49.552;7.632;2023-03-20T10:01:46;12.80;99.90
16060;DHT22;8134;49.552;7.632;2023-03-20T10:04:12;12.90;99.90
16060;DHT22;8134;49.552;7.632;2023-03-20T10:06:38;12.90;99.90
16060;DHT22;8134;49.552;7.632;2023-03-20T10:09:17;13.10;99.90
16060;DHT22;8134;49.552;7.632;2023-03-20T10:12:08;13.00;99.90
16060;DHT22;8134;49.552;7.632;2023-03-20T10:22:31;13.10;99.90
16060;DHT22;8134;49.552;7.632;2023-03-20T10:25:03;13.20;99.90
16060;DHT22;8134;49.552;7.632;2023-03-20T10:27:38;13.10;99.90
16060;DHT22;8134;49.552;7.632;2023-03-20T10:30:22;13.30;99.90
16060;DHT22;8134;49.552;7.632;2023-03-20T10:35:27;13.50;99.90
16060;DHT22;8134;49.552;7.632;2023-03-20T10:40:40;13.60;99.90
16060;DHT22;8134;49.552;7.632;2023-03-20T10:46:07;13.80;99.90
16060;DHT22;8134;49.552;7.632;2023-03-20T10:48:49;13.80;99.90
16060;DHT22;8134;49.552;7.632;2023-03-20T10:51:17;13.70;99.90
16060;DHT22;8134;49.552;7.632;2023-03-20T10:53:45;13.70;99.90
16060;DHT22;8134;49.552;7.632;2023-03-20T10:56:12;13.70;99.90
16060;DHT22;8134;49.552;7.632;2023-03-20T10:58:40;13.80;99.90
16060;DHT22;8134;49.552;7.632;2023-03-20T11:01:07;13.80;99.90
16060;DHT22;8134;49.552;7.632;2023-03-20T11:03:32;13.70;99.90
16060;DHT22;8134;49.552;7.632;2023-03-20T11:06:01;13.70;99.90
16060;DHT22;8134;49.552;7.632;2023-03-20T11:08:33;13.70;99.90
16060;DHT22;8134;49.552;7.632;2023-03-20T11:11:00;13.60;99.90
16060;DHT22;8134;49.552;7.632;2023-03-20T11:13:30;13.70;99.90
16060;DHT22;8134;49.552;7.632;2023-03-20T11:15:56;13.70;99.90
16060;DHT22;8134;49.552;7.632;2023-03-20T11:18:24;13.80;99.90
16060;DHT22;8134;49.552;7.632;2023-03-20T11:20:54;13.80;99.90
16060;DHT22;8134;49.552;7.632;2023-03-20T11:23:24;13.70;99.90
16060;DHT22;8134;49.552;7.632;2023-03-20T11:25:51;13.60;99.90
16060;DHT22;8134;49.552;7.632;2023-03-20T11:28:18;13.40;99.90
16060;DHT22;8134;49.552;7.632;2023-03-20T11:30:44;13.50;99.90
16060;DHT22;8134;49.552;7.632;2023-03-20T11:33:10;13.50;99.90
16060;DHT22;8134;49.552;7.632;2023-03-20T11:35:36;13.40;99.90
16060;DHT22;8134;49.552;7.632;2023-03-20T11:38:23;13.60;99.90
16060;DHT22;8134;49.552;7.632;2023-03-20T11:40:48;13.70;99.90
16060;DHT22;8134;49.552;7.632;2023-03-20T11:43:14;13.60;99.90
16060;DHT22;8134;49.552;7.632;2023-03-20T11:45:47;13.50;99.90
16060;DHT22;8134;49.552;7.632;2023-03-20T11:48:13;13.40;99.90
16060;DHT22;8134;49.552;7.632;2023-03-20T11:50:41;13.30;99.90
16060;DHT22;8134;49.552;7.632;2023-03-20T11:56:05;13.50;99.90
16060;DHT22;8134;49.552;7.632;2023-03-20T11:58:32;13.60;99.90
16060;DHT22;8134;49.552;7.632;2023-03-20T12:00:59;13.60;99.90
16060;DHT22;8134;49.552;7.632;2023-03-20T12:03:45;13.50;99.90
16060;DHT22;8134;49.552;7.632;2023-03-20T12:06:15;13.50;99.90
16060;DHT22;8134;49.552;7.632;2023-03-20T12:08:42;13.30;99.90
16060;DHT22;8134;49.552;7.632;2023-03-20T12:11:17;13.30;99.90
16060;DHT22;8134;49.552;7.632;2023-03-20T12:13:44;13.10;99.90
16060;DHT22;8134;49.552;7.632;2023-03-20T12:16:12;13.20;99.90
16060;DHT22;8134;49.552;7.632;2023-03-20T12:18:40;13.30;99.90
16060;DHT22;8134;49.552;7.632;2023-03-20T12:21:12;13.40;99.90
16060;DHT22;8134;49.552;7.632;2023-03-20T12:23:44;13.50;99.90
16060;DHT22;8134;49.552;7.632;2023-03-20T12:33:42;13.50;99.90
16060;DHT22;8134;49.552;7.632;2023-03-20T12:36:15;13.50;99.90
16060;DHT22;8134;49.552;7.632;2023-03-20T12:38:42;13.50;99.90
16060;DHT22;8134;49.552;7.632;2023-03-20T12:43:46;13.60;99.90
16060;DHT22;8134;49.552;7.632;2023-03-20T12:58:51;13.70;99.90
16060;DHT22;8134;49.552;7.632;2023-03-20T13:01:19;13.80;99.90
16060;DHT22;8134;49.552;7.632;2023-03-20T13:03:51;13.80;99.90
16060;DHT22;8134;49.552;7.632;2023-03-20T13:14:50;13.70;99.90
16060;DHT22;8134;49.552;7.632;2023-03-20T13:22:34;13.70;99.90
16060;DHT22;8134;49.552;7.632;2023-03-20T13:25:14;13.70;99.90
16060;DHT22;8134;49.552;7.632;2023-03-20T13:27:55;13.80;99.90
16060;DHT22;8134;49.552;7.632;2023-03-20T13:30:27;13.70;99.90
16060;DHT22;8134;49.552;7.632;2023-03-20T13:35:33;13.70;99.90
16060;DHT22;8134;49.552;7.632;2023-03-20T13:38:07;13.70;99.90
16060;DHT22;8134;49.552;7.632;2023-03-20T13:40:36;13.70;99.90
16060;DHT22;8134;49.552;7.632;2023-03-20T13:45:48;13.70;99.90
16060;DHT22;8134;49.552;7.632;2023-03-20T13:48:29;13.70;99.90
16060;DHT22;8134;49.552;7.632;2023-03-20T13:50:59;13.70;99.90
16060;DHT22;8134;49.552;7.632;2023-03-20T13:53:40;13.70;99.90
16060;DHT22;8134;49.552;7.632;2023-03-20T13:56:11;13.70;99.90
16060;DHT22;8134;49.552;7.632;2023-03-20T14:01:17;13.60;99.90
16060;DHT22;8134;49.552;7.632;2023-03-20T14:03:46;13.50;99.90
16060;DHT22;8134;49.552;7.632;2023-03-20T14:08:53;13.50;99.90
16060;DHT22;8134;49.552;7.632;2023-03-20T14:13:45;13.50;99.90
16060;DHT22;8134;49.552;7.632;2023-03-20T14:16:13;13.40;99.90
16060;DHT22;8134;49.552;7.632;2023-03-20T14:18:39;13.40;99.90
16060;DHT22;8134;49.552;7.632;2023-03-20T14:21:12;13.40;99.90
16060;DHT22;8134;49.552;7.632;2023-03-20T14:23:39;13.30;99.90
16060;DHT22;8134;49.552;7.632;2023-03-20T14:26:08;13.20;99.90
16060;DHT22;8134;49.552;7.632;2023-03-20T14:28:57;13.10;99.90
16060;DHT22;8134;49.552;7.632;2023-03-20T14:31:21;13.00;99.90
16060;DHT22;8134;49.552;7.632;2023-03-20T14:33:52;13.00;99.90
16060;DHT22;8134;49.552;7.632;2023-03-20T14:36:19;13.00;99.90
16060;DHT22;8134;49.552;7.632;2023-03-20T14:38:56;13.00;99.90
16060;DHT22;8134;49.552;7.632;2023-03-20T14:46:23;13.20;99.90
16060;DHT22;8134;49.552;7.632;2023-03-20T14:48:52;13.20;99.90
16060;DHT22;8134;49.552;7.632;2023-03-20T14:51:37;13.10;99.90
16060;DHT22;8134;49.552;7.632;2023-03-20T14:56:49;13.10;99.90
16060;DHT22;8134;49.552;7.632;2023-03-20T14:59:15;12.90;99.90
16060;DHT22;8134;49.552;7.632;2023-03-20T15:06:41;12.60;99.90
16060;DHT22;8134;49.552;7.632;2023-03-20T15:09:09;12.50;99.90
16060;DHT22;8134;49.552;7.632;2023-03-20T15:11:35;12.40;99.90
16060;DHT22;8134;49.552;7.632;2023-03-20T15:14:02;12.40;99.90
16060;DHT22;8134;49.552;7.632;2023-03-20T15:16:30;12.50;99.90
16060;DHT22;8134;49.552;7.632;2023-03-20T15:18:56;12.50;99.90
16060;DHT22;8134;49.552;7.632;2023-03-20T15:21:35;12.50;99.90
16060;DHT22;8134;49.552;7.632;2023-03-20T15:24:01;12.50;99.90
16060;DHT22;8134;49.552;7.632;2023-03-20T15:26:27;12.60;99.90
16060;DHT22;8134;49.552;7.632;2023-03-20T15:28:55;12.60;99.90
16060;DHT22;8134;49.552;7.632;2023-03-20T15:31:23;12.70;99.90
16060;DHT22;8134;49.552;7.632;2023-03-20T15:33:49;12.60;99.90
16060;DHT22;8134;49.552;7.632;2023-03-20T15:36:16;12.60;99.90
16060;DHT22;8134;49.552;7.632;2023-03-20T15:38:42;12.50;99.90
16060;DHT22;8134;49.552;7.632;2023-03-20T15:41:21;12.50;99.90
16060;DHT22;8134;49.552;7.632;2023-03-20T15:43:48;12.50;99.90
16060;DHT22;8134;49.552;7.632;2023-03-20T15:46:13;12.50;99.90
16060;DHT22;8134;49.552;7.632;2023-03-20T15:48:39;12.40;99.90
16060;DHT22;8134;49.552;7.632;2023-03-20T15:51:04;12.30;99.90
16060;DHT22;8134;49.552;7.632;2023-03-20T15:53:37;12.40;99.90
16060;DHT22;8134;49.552;7.632;2023-03-20T15:56:17;12.30;99.90
16060;DHT22;8134;49.552;7.632;2023-03-20T15:58:43;12.30;99.90
16060;DHT22;8134;49.552;7.632;2023-03-20T16:01:10;12.20;99.90
16060;DHT22;8134;49.552;7.632;2023-03-20T16:03:40;12.30;99.90
16060;DHT22;8134;49.552;7.632;2023-03-20T16:06:07;12.20;99.90
16060;DHT22;8134;49.552;7.632;2023-03-20T16:08:33;12.20;99.90
16060;DHT22;8134;49.552;7.632;2023-03-20T16:11:00;12.20;99.90
16060;DHT22;8134;49.552;7.632;2023-03-20T16:13:26;12.20;99.90
16060;DHT22;8134;49.552;7.632;2023-03-20T16:15:53;12.20;99.90
16060;DHT22;8134;49.552;7.632;2023-03-20T16:18:19;12.20;99.90
16060;DHT22;8134;49.552;7.632;2023-03-20T16:20:50;12.20;99.90
16060;DHT22;8134;49.552;7.632;2023-03-20T16:23:29;12.20;99.90
16060;DHT22;8134;49.552;7.632;2023-03-20T16:25:56;12.20;99.90
16060;DHT22;8134;49.552;7.632;2023-03-20T16:28:24;12.20;99.90
16060;DHT22;8134;49.552;7.632;2023-03-20T16:30:50;12.10;99.90
16060;DHT22;8134;49.552;7.632;2023-03-20T16:33:15;12.10;99.90
16060;DHT22;8134;49.552;7.632;2023-03-20T16:35:42;12.10;99.90
16060;DHT22;8134;49.552;7.632;2023-03-20T16:38:25;12.00;99.90
16060;DHT22;8134;49.552;7.632;2023-03-20T16:41:12;12.00;99.90
16060;DHT22;8134;49.552;7.632;2023-03-20T16:43:37;12.00;99.90
16060;DHT22;8134;49.552;7.632;2023-03-20T16:46:04;12.00;99.90
16060;DHT22;8134;49.552;7.632;2023-03-20T16:48:33;11.90;99.90
16060;DHT22;8134;49.552;7.632;2023-03-20T16:51:13;11.90;99.90
16060;DHT22;8134;49.552;7.632;2023-03-20T16:53:41;11.90;99.90
16060;DHT22;8134;49.552;7.632;2023-03-20T16:56:12;11.80;99.90
16060;DHT22;8134;49.552;7.632;2023-03-20T16:58:38;11.70;99.90
16060;DHT22;8134;49.552;7.632;2023-03-20T17:01:06;11.60;99.90
16060;DHT22;8134;49.552;7.632;2023-03-20T17:03:34;11.50;99.90
16060;DHT22;8134;49.552;7.632;2023-03-20T17:06:26;11.40;99.90
16060;DHT22;8134;49.552;7.632;2023-03-20T17:08:53;11.30;99.90
16060;DHT22;8134;49.552;7.632;2023-03-20T17:11:25;11.20;99.90
16060;DHT22;8134;49.552;7.632;2023-03-20T17:13:52;11.30;99.90
16060;DHT22;8134;49.552;7.632;2023-03-20T17:16:18;11.30;99.90
16060;DHT22;8134;49.552;7.632;2023-03-20T17:18:44;11.30;99.90
16060;DHT22;8134;49.552;7.632;2023-03-20T17:21:10;11.20;99.90
16060;DHT22;8134;49.552;7.632;2023-03-20T17:23:37;11.30;99.90
16060;DHT22;8134;49.552;7.632;2023-03-20T17:26:02;11.40;99.90
16060;DHT22;8134;49.552;7.632;2023-03-20T17:28:30;11.30;99.90
16060;DHT22;8134;49.552;7.632;2023-03-20T17:30:57;11.20;99.90
16060;DHT22;8134;49.552;7.632;2023-03-20T17:33:25;11.20;99.90
16060;DHT22;8134;49.552;7.632;2023-03-20T17:35:52;11.20;99.90
16060;DHT22;8134;49.552;7.632;2023-03-20T17:38:21;11.20;99.90
16060;DHT22;8134;49.552;7.632;2023-03-20T17:40:48;11.10;99.90
16060;DHT22;8134;49.552;7.632;2023-03-20T17:43:14;11.10;99.90
16060;DHT22;8134;49.552;7.632;2023-03-20T17:45:40;11.00;99.90
16060;DHT22;8134;49.552;7.632;2023-03-20T17:48:05;11.10;99.90
16060;DHT22;8134;49.552;7.632;2023-03-20T17:50:40;11.10;99.90
16060;DHT22;8134;49.552;7.632;2023-03-20T17:53:08;11.20;99.90
16060;DHT22;8134;49.552;7.632;2023-03-20T17:55:35;11.20;99.90
16060;DHT22;8134;49.552;7.632;2023-03-20T17:58:01;11.10;99.90
16060;DHT22;8134;49.552;7.632;2023-03-20T18:00:26;11.00;99.90
16060;DHT22;8134;49.552;7.632;2023-03-20T18:02:51;10.90;99.90
16060;DHT22;8134;49.552;7.632;2023-03-20T18:05:17;10.90;99.90
16060;DHT22;8134;49.552;7.632;2023-03-20T18:07:42;10.80;99.90
16060;DHT22;8134;49.552;7.632;2023-03-20T18:10:15;10.80;99.90
16060;DHT22;8134;49.552;7.632;2023-03-20T18:12:43;10.80;99.90
16060;DHT22;8134;49.552;7.632;2023-03-20T18:15:09;10.80;99.90
16060;DHT22;8134;49.552;7.632;2023-03-20T18:17:34;10.80;99.90
16060;DHT22;8134;49.552;7.632;2023-03-20T18:20:00;10.70;99.90
16060;DHT22;8134;49.552;7.632;2023-03-20T18:22:25;10.80;99.90
16060;DHT22;8134;49.552;7.632;2023-03-20T18:24:51;10.70;99.90
16060;DHT22;8134;49.552;7.632;2023-03-20T18:27:16;10.70;99.90
16060;DHT22;8134;49.552;7.632;2023-03-20T18:29:42;10.60;99.90
16060;DHT22;8134;49.552;7.632;2023-03-20T18:32:08;10.60;99.90
16060;DHT22;8134;49.552;7.632;2023-03-20T18:34:33;10.60;99.90
16060;DHT22;8134;49.552;7.632;2023-03-20T18:36:59;10.40;99.90
16060;DHT22;8134;49.552;7.632;2023-03-20T18:39:24;10.50;99.90
16060;DHT22;8134;49.552;7.632;2023-03-20T18:41:51;10.50;99.90
16060;DHT22;8134;49.552;7.632;2023-03-20T18:44:17;10.50;99.90
16060;DHT22;8134;49.552;7.632;2023-03-20T18:46:42;10.40;99.90
16060;DHT22;8134;49.552;7.632;2023-03-20T18:49:14;10.50;99.90
16060;DHT22;8134;49.552;7.632;2023-03-20T18:51:40;10.40;99.90
16060;DHT22;8134;49.552;7.632;2023-03-20T18:54:06;10.40;99.90
16060;DHT22;8134;49.552;7.632;2023-03-20T18:56:31;10.30;99.90
16060;DHT22;8134;49.552;7.632;2023-03-20T18:59:00;10.30;99.90
16060;DHT22;8134;49.552;7.632;2023-03-20T19:01:26;10.30;99.90
16060;DHT22;8134;49.552;7.632;2023-03-20T19:03:51;10.20;99.90
16060;DHT22;8134;49.552;7.632;2023-03-20T19:06:19;10.20;99.90
16060;DHT22;8134;49.552;7.632;2023-03-20T19:08:45;10.20;99.90
16060;DHT22;8134;49.552;7.632;2023-03-20T19:11:11;10.10;99.90
16060;DHT22;8134;49.552;7.632;2023-03-20T19:13:40;10.10;99.90
16060;DHT22;8134;49.552;7.632;2023-03-20T19:16:12;10.10;99.90
16060;DHT22;8134;49.552;7.632;2023-03-20T19:18:43;10.10;99.90
16060;DHT22;8134;49.552;7.632;2023-03-20T19:21:08;10.00;99.90
16060;DHT22;8134;49.552;7.632;2023-03-20T19:23:34;9.80;99.90
16060;DHT22;8134;49.552;7.632;2023-03-20T19:25:59;9.90;99.90
16060;DHT22;8134;49.552;7.632;2023-03-20T19:28:26;9.90;99.90
16060;DHT22;8134;49.552;7.632;2023-03-20T19:30:52;9.90;99.90
16060;DHT22;8134;49.552;7.632;2023-03-20T19:33:19;9.80;99.90
16060;DHT22;8134;49.552;7.632;2023-03-20T19:35:44;9.80;99.90
16060;DHT22;8134;49.552;7.632;2023-03-20T19:38:16;9.70;99.90
16060;DHT22;8134;49.552;7.632;2023-03-20T19:40:45;9.80;99.90
16060;DHT22;8134;49.552;7.632;2023-03-20T19:43:11;10.00;99.90
16060;DHT22;8134;49.552;7.632;2023-03-20T19:45:38;9.80;99.90
16060;DHT22;8134;49.552;7.632;2023-03-20T19:48:12;9.90;99.90
16060;DHT22;8134;49.552;7.632;2023-03-20T19:50:38;9.90;99.90
16060;DHT22;8134;49.552;7.632;2023-03-20T19:53:04;10.00;99.90
16060;DHT22;8134;49.552;7.632;2023-03-20T19:55:30;10.00;99.90
16060;DHT22;8134;49.552;7.632;2023-03-20T19:57:56;9.90;99.90
16060;DHT22;8134;49.552;7.632;2023-03-20T20:00:25;9.90;99.90
16060;DHT22;8134;49.552;7.632;2023-03-20T20:02:51;9.80;99.90
16060;DHT22;8134;49.552;7.632;2023-03-20T20:05:24;9.70;99.90
16060;DHT22;8134;49.552;7.632;2023-03-20T20:07:54;9.80;99.90
16060;DHT22;8134;49.552;7.632;2023-03-20T20:10:20;9.70;99.90
16060;DHT22;8134;49.552;7.632;2023-03-20T20:12:46;9.90;99.90
16060;DHT22;8134;49.552;7.632;2023-03-20T20:15:12;9.90;99.90
16060;DHT22;8134;49.552;7.632;2023-03-20T20:17:38;9.90;99.90
16060;DHT22;8134;49.552;7.632;2023-03-20T20:20:03;9.90;99.90
16060;DHT22;8134;49.552;7.632;2023-03-20T20:22:29;9.90;99.90
16060;DHT22;8134;49.552;7.632;2023-03-20T20:24:55;10.10;99.90
16060;DHT22;8134;49.552;7.632;2023-03-20T20:27:22;9.90;99.90
16060;DHT22;8134;49.552;7.632;2023-03-20T20:29:48;10.00;99.90
16060;DHT22;8134;49.552;7.632;2023-03-20T20:32:14;9.80;99.90
16060;DHT22;8134;49.552;7.632;2023-03-20T20:34:40;9.90;99.90
16060;DHT22;8134;49.552;7.632;2023-03-20T20:37:06;10.00;99.90
16060;DHT22;8134;49.552;7.632;2023-03-20T20:39:32;10.00;99.90
16060;DHT22;8134;49.552;7.632;2023-03-20T20:41:57;10.00;99.90
16060;DHT22;8134;49.552;7.632;2023-03-20T20:44:23;10.00;99.90
16060;DHT22;8134;49.552;7.632;2023-03-20T20:46:48;10.00;99.90
16060;DHT22;8134;49.552;7.632;2023-03-20T20:49:14;10.00;99.90
16060;DHT22;8134;49.552;7.632;2023-03-20T20:51:39;9.90;99.90
16060;DHT22;8134;49.552;7.632;2023-03-20T20:54:05;10.00;99.90
16060;DHT22;8134;49.552;7.632;2023-03-20T20:56:31;10.00;99.90
16060;DHT22;8134;49.552;7.632;2023-03-20T20:58:57;9.90;99.90
16060;DHT22;8134;49.552;7.632;2023-03-20T21:01:22;10.10;99.90
16060;DHT22;8134;49.552;7.632;2023-03-20T21:03:48;10.00;99.90
16060;DHT22;8134;49.552;7.632;2023-03-20T21:06:13;10.00;99.90
16060;DHT22;8134;49.552;7.632;2023-03-20T21:08:39;10.00;99.90
16060;DHT22;8134;49.552;7.632;2023-03-20T21:11:05;10.00;99.90
16060;DHT22;8134;49.552;7.632;2023-03-20T21:13:31;10.10;99.90
16060;DHT22;8134;49.552;7.632;2023-03-20T21:15:58;10.20;99.90
16060;DHT22;8134;49.552;7.632;2023-03-20T21:18:24;10.10;99.90
16060;DHT22;8134;49.552;7.632;2023-03-20T21:20:51;10.00;99.90
16060;DHT22;8134;49.552;7.632;2023-03-20T21:23:16;10.10;99.90
16060;DHT22;8134;49.552;7.632;2023-03-20T21:25:42;10.10;99.90
16060;DHT22;8134;49.552;7.632;2023-03-20T21:28:08;10.10;99.90
16060;DHT22;8134;49.552;7.632;2023-03-20T21:30:33;10.20;99.90
16060;DHT22;8134;49.552;7.632;2023-03-20T21:33:00;10.20;99.90
16060;DHT22;8134;49.552;7.632;2023-03-20T21:35:25;10.10;99.90
16060;DHT22;8134;49.552;7.632;2023-03-20T21:37:51;10.00;99.90
16060;DHT22;8134;49.552;7.632;2023-03-20T21:40:16;9.90;99.90
16060;DHT22;8134;49.552;7.632;2023-03-20T21:42:42;9.80;99.90
16060;DHT22;8134;49.552;7.632;2023-03-20T21:45:08;9.80;99.90
16060;DHT22;8134;49.552;7.632;2023-03-20T21:47:33;9.80;99.90
16060;DHT22;8134;49.552;7.632;2023-03-20T21:49:59;9.80;99.90
16060;DHT22;8134;49.552;7.632;2023-03-20T21:52:24;9.90;99.90
16060;DHT22;8134;49.552;7.632;2023-03-20T21:54:50;10.00;99.90
16060;DHT22;8134;49.552;7.632;2023-03-20T21:57:16;9.90;99.90
16060;DHT22;8134;49.552;7.632;2023-03-20T21:59:41;9.90;99.90
16060;DHT22;8134;49.552;7.632;2023-03-20T22:02:14;9.90;99.90
16060;DHT22;8134;49.552;7.632;2023-03-20T22:04:40;9.80;99.90
16060;DHT22;8134;49.552;7.632;2023-03-20T22:07:06;9.80;99.90
16060;DHT22;8134;49.552;7.632;2023-03-20T22:09:32;9.80;99.90
16060;DHT22;8134;49.552;7.632;2023-03-20T22:11:57;9.80;99.90
16060;DHT22;8134;49.552;7.632;2023-03-20T22:14:23;9.80;99.90
16060;DHT22;8134;49.552;7.632;2023-03-20T22:16:48;9.80;99.90
16060;DHT22;8134;49.552;7.632;2023-03-20T22:19:13;9.80;99.90
16060;DHT22;8134;49.552;7.632;2023-03-20T22:21:44;9.70;99.90
16060;DHT22;8134;49.552;7.632;2023-03-20T22:24:10;9.70;99.90
16060;DHT22;8134;49.552;7.632;2023-03-20T22:26:36;9.60;99.90
